sensor_id;sensor_type;location;lat;lon;timestamp;noise_LAeq;noise_LA_min;noise_LA_max;noise_LA01;noise_LA95
37279;Laerm;7458;49.002;8.472;2023-04-25T00:01:45;45.71;41.14;53.36;;
37279;Laerm;7458;49.002;8.472;2023-04-25T00:04:11;45.91;41.96;52.81;;
37279;Laerm;7458;49.002;8.472;2023-04-25T00:06:37;45.80;41.06;53.46;;
37279;Laerm;7458;49.002;8.472;2023-04-25T00:09:04;45.97;41.89;53.15;;
37279;Laerm;7458;49.002;8.472;2023-04-25T00:11:33;45.70;40.53;52.79;;
37279;Laerm;7458;49.002;8.472;2023-04-25T00:14:00;45.78;41.30;52.90;;
37279;Laerm;7458;49.002;8.472;2023-04-25T00:16:28;45.76;40.80;53.37;;
37279;Laerm;7458;49.002;8.472;2023-04-25T00:18:55;45.61;40.80;53.18;;
37279;Laerm;7458;49.002;8.472;2023-04-25T00:21:21;45.59;40.53;54.17;;
37279;Laerm;7458;49.002;8.472;2023-04-25T00:23:48;54.78;40.03;78.67;;
37279;Laerm;7458;49.002;8.472;2023-04-25T00:26:13;45.43;40.96;52.84;;
37279;Laerm;7458;49.002;8.472;2023-04-25T00:28:40;45.49;40.62;52.78;;
37279;Laerm;7458;49.002;8.472;2023-04-25T00:31:06;45.42;40.23;52.96;;
37279;Laerm;7458;49.002;8.472;2023-04-25T00:33:32;45.53;40.89;53.26;;
37279;Laerm;7458;49.002;8.472;2023-04-25T00:35:58;45.77;40.80;52.79;;
37279;Laerm;7458;49.002;8.472;2023-04-25T00:38:24;45.93;41.89;52.80;;
37279;Laerm;7458;49.002;8.472;2023-04-25T00:40:50;46.02;42.03;53.16;;
37279;Laerm;7458;49.002;8.472;2023-04-25T00:43:15;45.93;41.61;53.27;;
37279;Laerm;7458;49.002;8.472;2023-04-25T00:45:43;45.53;40.80;52.56;;
37279;Laerm;7458;49.002;8.472;2023-04-25T00:48:09;45.53;40.53;52.70;;
37279;Laerm;7458;49.002;8.472;2023-04-25T00:50:36;45.79;41.38;52.83;;
37279;Laerm;7458;49.002;8.472;2023-04-25T00:53:02;45.73;41.38;53.37;;
37279;Laerm;7458;49.002;8.472;2023-04-25T00:55:29;46.05;41.61;56.03;;
37279;Laerm;7458;49.002;8.472;2023-04-25T00:57:57;45.76;41.38;52.63;;
37279;Laerm;7458;49.002;8.472;2023-04-25T01:00:23;45.67;41.22;52.94;;
37279;Laerm;7458;49.002;8.472;2023-04-25T01:02:49;45.92;41.96;53.00;;
37279;Laerm;7458;49.002;8.472;2023-04-25T01:05:16;45.64;41.38;52.81;;
37279;Laerm;7458;49.002;8.472;2023-04-25T01:07:42;45.94;41.82;53.19;;
37279;Laerm;7458;49.002;8.472;2023-04-25T01:10:09;46.01;42.16;52.96;;
37279;Laerm;7458;49.002;8.472;2023-04-25T01:12:35;45.45;40.43;53.18;;
37279;Laerm;7458;49.002;8.472;2023-04-25T01:15:01;44.77;38.95;52.67;;
37279;Laerm;7458;49.002;8.472;2023-04-25T01:17:28;44.61;38.67;52.87;;
37279;Laerm;7458;49.002;8.472;2023-04-25T01:19:54;45.46;39.70;53.28;;
37279;Laerm;7458;49.002;8.472;2023-04-25T01:22:21;45.09;40.03;52.59;;
37279;Laerm;7458;49.002;8.472;2023-04-25T01:24:47;44.80;38.95;52.83;;
37279;Laerm;7458;49.002;8.472;2023-04-25T01:27:14;44.93;39.21;52.63;;
37279;Laerm;7458;49.002;8.472;2023-04-25T01:29:41;44.86;39.34;52.93;;
37279;Laerm;7458;49.002;8.472;2023-04-25T01:32:08;44.86;39.58;52.60;;
37279;Laerm;7458;49.002;8.472;2023-04-25T01:34:34;45.09;39.34;52.30;;
37279;Laerm;7458;49.002;8.472;2023-04-25T01:37:00;44.94;39.08;52.57;;
37279;Laerm;7458;49.002;8.472;2023-04-25T01:39:27;45.33;39.92;53.04;;
37279;Laerm;7458;49.002;8.472;2023-04-25T01:41:54;45.39;40.80;53.15;;
37279;Laerm;7458;49.002;8.472;2023-04-25T01:44:20;45.25;40.13;52.90;;
37279;Laerm;7458;49.002;8.472;2023-04-25T01:46:46;45.04;39.34;52.95;;
37279;Laerm;7458;49.002;8.472;2023-04-25T01:49:12;45.16;40.13;52.78;;
37279;Laerm;7458;49.002;8.472;2023-04-25T01:51:38;45.37;39.92;52.74;;
37279;Laerm;7458;49.002;8.472;2023-04-25T01:54:04;45.85;41.48;52.56;;
37279;Laerm;7458;49.002;8.472;2023-04-25T01:56:32;45.63;40.98;52.80;;
37279;Laerm;7458;49.002;8.472;2023-04-25T01:58:58;45.42;40.89;52.85;;
37279;Laerm;7458;49.002;8.472;2023-04-25T02:01:24;46.94;40.62;60.68;;
37279;Laerm;7458;49.002;8.472;2023-04-25T02:03:50;46.19;41.06;61.66;;
37279;Laerm;7458;49.002;8.472;2023-04-25T02:06:16;45.69;41.30;53.06;;
37279;Laerm;7458;49.002;8.472;2023-04-25T02:08:42;45.73;41.14;52.96;;
37279;Laerm;7458;49.002;8.472;2023-04-25T02:11:07;45.91;41.89;53.37;;
37279;Laerm;7458;49.002;8.472;2023-04-25T02:13:33;46.55;42.88;53.39;;
37279;Laerm;7458;49.002;8.472;2023-04-25T02:15:59;46.53;42.59;54.01;;
37279;Laerm;7458;49.002;8.472;2023-04-25T02:18:25;46.47;42.35;53.11;;
37279;Laerm;7458;49.002;8.472;2023-04-25T02:20:51;46.60;42.71;53.57;;
37279;Laerm;7458;49.002;8.472;2023-04-25T02:23:17;47.15;42.16;53.12;;
37279;Laerm;7458;49.002;8.472;2023-04-25T02:25:45;46.15;41.30;57.66;;
37279;Laerm;7458;49.002;8.472;2023-04-25T02:28:11;46.53;42.71;53.68;;
37279;Laerm;7458;49.002;8.472;2023-04-25T02:30:37;47.20;42.35;67.75;;
37279;Laerm;7458;49.002;8.472;2023-04-25T02:33:03;46.48;42.53;57.18;;
37279;Laerm;7458;49.002;8.472;2023-04-25T02:35:29;48.60;42.29;75.98;;
37279;Laerm;7458;49.002;8.472;2023-04-25T02:37:55;49.04;43.14;75.89;;
37279;Laerm;7458;49.002;8.472;2023-04-25T02:40:21;46.98;42.59;72.40;;
37279;Laerm;7458;49.002;8.472;2023-04-25T02:42:47;46.52;42.03;68.62;;
37279;Laerm;7458;49.002;8.472;2023-04-25T02:45:13;46.21;42.35;54.94;;
37279;Laerm;7458;49.002;8.472;2023-04-25T02:47:39;46.30;41.68;57.63;;
37279;Laerm;7458;49.002;8.472;2023-04-25T02:50:05;46.19;41.89;53.04;;
37279;Laerm;7458;49.002;8.472;2023-04-25T02:52:31;46.47;42.09;53.61;;
37279;Laerm;7458;49.002;8.472;2023-04-25T02:54:57;45.68;41.06;53.25;;
37279;Laerm;7458;49.002;8.472;2023-04-25T02:57:23;46.37;40.89;70.39;;
37279;Laerm;7458;49.002;8.472;2023-04-25T02:59:49;45.74;41.38;53.91;;
37279;Laerm;7458;49.002;8.472;2023-04-25T03:02:14;45.80;40.71;63.98;;
37279;Laerm;7458;49.002;8.472;2023-04-25T03:04:40;46.15;42.09;59.09;;
37279;Laerm;7458;49.002;8.472;2023-04-25T03:07:07;46.27;41.61;54.44;;
37279;Laerm;7458;49.002;8.472;2023-04-25T03:09:33;46.45;42.29;53.80;;
37279;Laerm;7458;49.002;8.472;2023-04-25T03:11:59;46.81;41.38;56.13;;
37279;Laerm;7458;49.002;8.472;2023-04-25T03:14:25;47.44;42.47;64.73;;
37279;Laerm;7458;49.002;8.472;2023-04-25T03:16:51;48.58;41.46;64.38;;
37279;Laerm;7458;49.002;8.472;2023-04-25T03:19:17;51.47;42.47;64.89;;
37279;Laerm;7458;49.002;8.472;2023-04-25T03:21:44;47.13;42.71;54.91;;
37279;Laerm;7458;49.002;8.472;2023-04-25T03:24:10;47.40;42.93;55.30;;
37279;Laerm;7458;49.002;8.472;2023-04-25T03:26:39;47.04;42.98;54.57;;
37279;Laerm;7458;49.002;8.472;2023-04-25T03:29:05;49.14;42.82;60.08;;
37279;Laerm;7458;49.002;8.472;2023-04-25T03:31:31;51.71;43.04;63.07;;
37279;Laerm;7458;49.002;8.472;2023-04-25T03:33:57;48.36;42.88;59.25;;
37279;Laerm;7458;49.002;8.472;2023-04-25T03:36:23;48.46;43.49;64.18;;
37279;Laerm;7458;49.002;8.472;2023-04-25T03:38:49;48.87;43.04;73.44;;
37279;Laerm;7458;49.002;8.472;2023-04-25T03:41:15;50.01;43.09;69.88;;
37279;Laerm;7458;49.002;8.472;2023-04-25T03:43:41;53.30;43.29;68.66;;
37279;Laerm;7458;49.002;8.472;2023-04-25T03:46:07;49.87;43.29;65.84;;
37279;Laerm;7458;49.002;8.472;2023-04-25T03:48:33;49.71;43.81;61.22;;
37279;Laerm;7458;49.002;8.472;2023-04-25T03:50:59;52.71;42.88;73.97;;
37279;Laerm;7458;49.002;8.472;2023-04-25T03:53:25;49.49;42.76;60.51;;
37279;Laerm;7458;49.002;8.472;2023-04-25T03:55:51;53.51;43.34;71.69;;
37279;Laerm;7458;49.002;8.472;2023-04-25T03:58:17;54.38;43.24;73.92;;
37279;Laerm;7458;49.002;8.472;2023-04-25T04:00:44;56.68;42.88;79.16;;
37279;Laerm;7458;49.002;8.472;2023-04-25T04:03:10;50.80;43.64;65.72;;
37279;Laerm;7458;49.002;8.472;2023-04-25T04:05:36;51.20;43.44;67.02;;
37279;Laerm;7458;49.002;8.472;2023-04-25T04:08:03;52.15;43.86;67.91;;
37279;Laerm;7458;49.002;8.472;2023-04-25T04:10:29;49.46;43.34;59.60;;
37279;Laerm;7458;49.002;8.472;2023-04-25T04:12:55;50.01;43.49;61.73;;
37279;Laerm;7458;49.002;8.472;2023-04-25T04:15:21;50.61;43.63;69.01;;
37279;Laerm;7458;49.002;8.472;2023-04-25T04:17:48;48.99;44.19;58.84;;
37279;Laerm;7458;49.002;8.472;2023-04-25T04:20:14;58.01;43.99;77.29;;
37279;Laerm;7458;49.002;8.472;2023-04-25T04:22:40;49.51;43.39;58.37;;
37279;Laerm;7458;49.002;8.472;2023-04-25T04:25:06;51.50;43.86;65.36;;
37279;Laerm;7458;49.002;8.472;2023-04-25T04:27:32;53.18;43.04;65.54;;
37279;Laerm;7458;49.002;8.472;2023-04-25T04:29:58;48.94;43.34;61.74;;
37279;Laerm;7458;49.002;8.472;2023-04-25T04:32:24;49.08;43.29;63.63;;
37279;Laerm;7458;49.002;8.472;2023-04-25T04:34:51;53.91;43.04;73.63;;
37279;Laerm;7458;49.002;8.472;2023-04-25T04:37:18;52.97;42.35;71.25;;
37279;Laerm;7458;49.002;8.472;2023-04-25T04:39:44;47.79;41.75;63.00;;
37279;Laerm;7458;49.002;8.472;2023-04-25T04:42:09;52.04;41.61;69.16;;
37279;Laerm;7458;49.002;8.472;2023-04-25T04:44:37;54.49;42.47;73.39;;
37279;Laerm;7458;49.002;8.472;2023-04-25T04:47:05;55.78;41.75;71.00;;
37279;Laerm;7458;49.002;8.472;2023-04-25T04:49:32;50.19;41.30;66.54;;
37279;Laerm;7458;49.002;8.472;2023-04-25T04:51:58;48.41;41.30;63.69;;
37279;Laerm;7458;49.002;8.472;2023-04-25T04:54:25;50.65;41.96;64.73;;
37279;Laerm;7458;49.002;8.472;2023-04-25T04:56:52;54.53;41.96;72.03;;
37279;Laerm;7458;49.002;8.472;2023-04-25T04:59:18;53.02;42.29;71.72;;
37279;Laerm;7458;49.002;8.472;2023-04-25T05:01:44;53.38;44.87;69.84;;
37279;Laerm;7458;49.002;8.472;2023-04-25T05:04:11;52.25;45.14;68.00;;
37279;Laerm;7458;49.002;8.472;2023-04-25T05:06:37;49.65;45.36;64.41;;
37279;Laerm;7458;49.002;8.472;2023-04-25T05:09:02;52.62;43.94;70.12;;
37279;Laerm;7458;49.002;8.472;2023-04-25T05:11:29;50.18;43.24;63.93;;
37279;Laerm;7458;49.002;8.472;2023-04-25T05:13:55;49.02;43.29;58.07;;
37279;Laerm;7458;49.002;8.472;2023-04-25T05:16:21;51.93;43.04;70.58;;
37279;Laerm;7458;49.002;8.472;2023-04-25T05:18:48;53.55;43.58;73.28;;
37279;Laerm;7458;49.002;8.472;2023-04-25T05:21:14;51.74;42.41;66.06;;
37279;Laerm;7458;49.002;8.472;2023-04-25T05:23:40;60.65;43.72;78.99;;
37279;Laerm;7458;49.002;8.472;2023-04-25T05:26:06;62.55;43.29;80.06;;
37279;Laerm;7458;49.002;8.472;2023-04-25T05:28:39;50.96;43.34;70.72;;
37279;Laerm;7458;49.002;8.472;2023-04-25T05:31:06;61.71;42.82;76.00;;
37279;Laerm;7458;49.002;8.472;2023-04-25T05:33:32;55.93;42.41;74.76;;
37279;Laerm;7458;49.002;8.472;2023-04-25T05:35:58;54.24;42.22;67.60;;
37279;Laerm;7458;49.002;8.472;2023-04-25T05:38:25;58.73;42.16;74.59;;
37279;Laerm;7458;49.002;8.472;2023-04-25T05:40:50;56.04;43.19;70.15;;
37279;Laerm;7458;49.002;8.472;2023-04-25T05:43:16;53.56;42.03;72.40;;
37279;Laerm;7458;49.002;8.472;2023-04-25T05:45:42;53.83;42.98;70.16;;
37279;Laerm;7458;49.002;8.472;2023-04-25T05:48:08;57.41;41.14;74.05;;
37279;Laerm;7458;49.002;8.472;2023-04-25T05:50:34;54.88;42.35;71.97;;
37279;Laerm;7458;49.002;8.472;2023-04-25T05:53:00;53.90;43.24;71.75;;
37279;Laerm;7458;49.002;8.472;2023-04-25T05:55:26;55.84;42.71;75.51;;
37279;Laerm;7458;49.002;8.472;2023-04-25T05:57:52;56.12;42.76;77.23;;
37279;Laerm;7458;49.002;8.472;2023-04-25T06:00:18;55.25;41.75;70.40;;
37279;Laerm;7458;49.002;8.472;2023-04-25T06:02:44;53.40;42.47;68.25;;
37279;Laerm;7458;49.002;8.472;2023-04-25T06:05:10;53.64;43.33;70.98;;
37279;Laerm;7458;49.002;8.472;2023-04-25T06:07:35;53.39;42.93;70.18;;
37279;Laerm;7458;49.002;8.472;2023-04-25T06:10:01;54.94;43.29;72.14;;
37279;Laerm;7458;49.002;8.472;2023-04-25T06:12:28;55.29;42.35;71.76;;
37279;Laerm;7458;49.002;8.472;2023-04-25T06:14:54;53.83;43.05;70.20;;
37279;Laerm;7458;49.002;8.472;2023-04-25T06:17:20;50.41;42.29;68.28;;
37279;Laerm;7458;49.002;8.472;2023-04-25T06:19:45;53.17;42.82;71.75;;
37279;Laerm;7458;49.002;8.472;2023-04-25T06:22:11;55.44;43.04;70.53;;
37279;Laerm;7458;49.002;8.472;2023-04-25T06:24:37;52.54;43.49;67.99;;
37279;Laerm;7458;49.002;8.472;2023-04-25T06:27:03;52.93;43.72;64.37;;
37279;Laerm;7458;49.002;8.472;2023-04-25T06:29:29;54.70;44.35;73.11;;
37279;Laerm;7458;49.002;8.472;2023-04-25T06:31:55;51.97;43.81;69.19;;
37279;Laerm;7458;49.002;8.472;2023-04-25T06:34:21;56.11;44.38;72.05;;
37279;Laerm;7458;49.002;8.472;2023-04-25T06:36:47;54.21;43.19;74.19;;
37279;Laerm;7458;49.002;8.472;2023-04-25T06:39:13;50.38;43.44;66.70;;
37279;Laerm;7458;49.002;8.472;2023-04-25T06:41:39;56.72;44.54;73.58;;
37279;Laerm;7458;49.002;8.472;2023-04-25T06:44:04;49.50;42.88;73.81;;
37279;Laerm;7458;49.002;8.472;2023-04-25T06:46:30;57.96;43.44;75.98;;
37279;Laerm;7458;49.002;8.472;2023-04-25T06:48:59;51.50;44.03;71.21;;
37279;Laerm;7458;49.002;8.472;2023-04-25T06:51:25;54.22;43.44;75.01;;
37279;Laerm;7458;49.002;8.472;2023-04-25T06:53:54;52.35;43.99;72.99;;
37279;Laerm;7458;49.002;8.472;2023-04-25T06:56:19;51.18;43.68;63.75;;
37279;Laerm;7458;49.002;8.472;2023-04-25T06:58:47;52.74;44.76;67.92;;
37279;Laerm;7458;49.002;8.472;2023-04-25T07:01:13;57.57;44.69;73.05;;
37279;Laerm;7458;49.002;8.472;2023-04-25T07:03:38;58.44;44.19;72.61;;
37279;Laerm;7458;49.002;8.472;2023-04-25T07:06:05;52.84;43.99;66.77;;
37279;Laerm;7458;49.002;8.472;2023-04-25T07:08:31;53.98;43.99;74.49;;
37279;Laerm;7458;49.002;8.472;2023-04-25T07:10:57;50.81;42.98;68.32;;
37279;Laerm;7458;49.002;8.472;2023-04-25T07:13:23;55.88;43.49;74.73;;
37279;Laerm;7458;49.002;8.472;2023-04-25T07:15:49;52.42;43.14;68.85;;
37279;Laerm;7458;49.002;8.472;2023-04-25T07:18:15;68.06;43.29;96.73;;
37279;Laerm;7458;49.002;8.472;2023-04-25T07:20:41;55.33;43.72;70.79;;
37279;Laerm;7458;49.002;8.472;2023-04-25T07:23:07;56.17;43.58;72.04;;
37279;Laerm;7458;49.002;8.472;2023-04-25T07:25:33;53.37;43.90;66.20;;
37279;Laerm;7458;49.002;8.472;2023-04-25T07:28:00;54.14;43.19;70.87;;
37279;Laerm;7458;49.002;8.472;2023-04-25T07:30:26;56.66;43.90;77.63;;
37279;Laerm;7458;49.002;8.472;2023-04-25T07:32:52;56.28;43.19;73.70;;
37279;Laerm;7458;49.002;8.472;2023-04-25T07:35:18;55.30;42.76;73.57;;
37279;Laerm;7458;49.002;8.472;2023-04-25T07:37:45;48.51;42.71;57.05;;
37279;Laerm;7458;49.002;8.472;2023-04-25T07:40:11;51.54;41.96;69.05;;
37279;Laerm;7458;49.002;8.472;2023-04-25T07:42:37;52.79;42.65;68.81;;
37279;Laerm;7458;49.002;8.472;2023-04-25T07:45:03;52.00;42.22;69.08;;
37279;Laerm;7458;49.002;8.472;2023-04-25T07:47:29;52.80;43.54;66.43;;
37279;Laerm;7458;49.002;8.472;2023-04-25T07:49:55;50.83;42.53;63.94;;
37279;Laerm;7458;49.002;8.472;2023-04-25T07:52:22;51.78;42.71;65.14;;
37279;Laerm;7458;49.002;8.472;2023-04-25T07:54:48;56.64;43.29;75.93;;
37279;Laerm;7458;49.002;8.472;2023-04-25T07:57:14;53.22;42.88;68.50;;
37279;Laerm;7458;49.002;8.472;2023-04-25T07:59:40;50.51;42.47;64.98;;
37279;Laerm;7458;49.002;8.472;2023-04-25T08:02:06;56.02;43.58;70.70;;
37279;Laerm;7458;49.002;8.472;2023-04-25T08:04:32;54.19;43.09;70.69;;
37279;Laerm;7458;49.002;8.472;2023-04-25T08:06:58;54.17;42.93;68.60;;
37279;Laerm;7458;49.002;8.472;2023-04-25T08:09:23;57.51;44.65;77.18;;
37279;Laerm;7458;49.002;8.472;2023-04-25T08:11:50;53.99;43.64;76.46;;
37279;Laerm;7458;49.002;8.472;2023-04-25T08:14:16;54.23;42.47;70.97;;
37279;Laerm;7458;49.002;8.472;2023-04-25T08:16:42;47.94;43.44;57.13;;
37279;Laerm;7458;49.002;8.472;2023-04-25T08:19:09;57.18;43.19;74.72;;
37279;Laerm;7458;49.002;8.472;2023-04-25T08:21:35;64.84;43.90;78.58;;
37279;Laerm;7458;49.002;8.472;2023-04-25T08:24:01;73.84;63.65;93.11;;
37279;Laerm;7458;49.002;8.472;2023-04-25T08:26:28;73.28;60.75;89.74;;
37279;Laerm;7458;49.002;8.472;2023-04-25T08:28:54;71.04;51.70;89.66;;
37279;Laerm;7458;49.002;8.472;2023-04-25T08:31:20;53.21;43.19;69.48;;
37279;Laerm;7458;49.002;8.472;2023-04-25T08:33:46;59.86;47.32;76.04;;
37279;Laerm;7458;49.002;8.472;2023-04-25T08:36:12;61.72;50.10;74.83;;
37279;Laerm;7458;49.002;8.472;2023-04-25T08:38:38;63.79;50.40;80.28;;
37279;Laerm;7458;49.002;8.472;2023-04-25T08:41:06;59.27;48.29;73.19;;
37279;Laerm;7458;49.002;8.472;2023-04-25T08:43:32;60.91;53.15;79.14;;
37279;Laerm;7458;49.002;8.472;2023-04-25T08:46:01;68.09;52.22;84.40;;
37279;Laerm;7458;49.002;8.472;2023-04-25T08:48:27;67.59;41.89;88.07;;
37279;Laerm;7458;49.002;8.472;2023-04-25T08:50:57;58.93;41.89;78.26;;
37279;Laerm;7458;49.002;8.472;2023-04-25T08:53:32;49.63;42.76;64.04;;
37279;Laerm;7458;49.002;8.472;2023-04-25T08:56:00;48.88;43.72;65.67;;
37279;Laerm;7458;49.002;8.472;2023-04-25T08:58:29;56.22;44.90;74.41;;
37279;Laerm;7458;49.002;8.472;2023-04-25T09:00:56;52.11;43.49;69.59;;
37279;Laerm;7458;49.002;8.472;2023-04-25T09:03:22;56.03;43.72;76.39;;
37279;Laerm;7458;49.002;8.472;2023-04-25T09:05:48;51.31;43.19;68.16;;
37279;Laerm;7458;49.002;8.472;2023-04-25T09:08:15;59.14;44.03;77.79;;
37279;Laerm;7458;49.002;8.472;2023-04-25T09:10:42;53.63;43.77;71.78;;
37279;Laerm;7458;49.002;8.472;2023-04-25T09:13:14;54.61;43.14;79.13;;
37279;Laerm;7458;49.002;8.472;2023-04-25T09:15:55;59.24;43.81;74.00;;
37279;Laerm;7458;49.002;8.472;2023-04-25T09:18:32;67.57;45.89;83.69;;
37279;Laerm;7458;49.002;8.472;2023-04-25T09:21:11;61.36;46.15;83.54;;
37279;Laerm;7458;49.002;8.472;2023-04-25T09:23:48;58.98;45.51;83.26;;
37279;Laerm;7458;49.002;8.472;2023-04-25T09:26:16;56.44;44.76;75.87;;
37279;Laerm;7458;49.002;8.472;2023-04-25T09:28:43;57.37;44.65;76.68;;
37279;Laerm;7458;49.002;8.472;2023-04-25T09:31:10;57.45;45.33;82.94;;
37279;Laerm;7458;49.002;8.472;2023-04-25T09:33:37;61.80;46.87;83.37;;
37279;Laerm;7458;49.002;8.472;2023-04-25T09:36:06;60.97;47.00;80.08;;
37279;Laerm;7458;49.002;8.472;2023-04-25T09:38:46;55.43;47.84;77.17;;
37279;Laerm;7458;49.002;8.472;2023-04-25T09:41:12;58.88;49.41;87.91;;
37279;Laerm;7458;49.002;8.472;2023-04-25T09:43:39;54.65;48.69;80.46;;
37279;Laerm;7458;49.002;8.472;2023-04-25T09:46:10;63.06;49.33;85.26;;
37279;Laerm;7458;49.002;8.472;2023-04-25T09:48:37;62.46;49.04;84.30;;
37279;Laerm;7458;49.002;8.472;2023-04-25T09:51:06;53.67;48.00;74.42;;
37279;Laerm;7458;49.002;8.472;2023-04-25T09:53:38;62.22;49.49;81.37;;
37279;Laerm;7458;49.002;8.472;2023-04-25T09:56:06;58.56;47.83;78.52;;
37279;Laerm;7458;49.002;8.472;2023-04-25T09:58:34;61.07;50.09;80.40;;
37279;Laerm;7458;49.002;8.472;2023-04-25T10:01:10;61.45;50.64;80.77;;
37279;Laerm;7458;49.002;8.472;2023-04-25T10:03:38;59.71;50.21;79.72;;
37279;Laerm;7458;49.002;8.472;2023-04-25T10:06:12;61.04;49.65;80.47;;
37279;Laerm;7458;49.002;8.472;2023-04-25T10:08:40;59.29;48.88;76.82;;
37279;Laerm;7458;49.002;8.472;2023-04-25T10:11:08;60.57;49.09;77.14;;
37279;Laerm;7458;49.002;8.472;2023-04-25T10:13:35;61.47;50.63;88.23;;
37279;Laerm;7458;49.002;8.472;2023-04-25T10:16:04;59.39;49.27;78.28;;
37279;Laerm;7458;49.002;8.472;2023-04-25T10:18:32;63.36;49.41;78.86;;
37279;Laerm;7458;49.002;8.472;2023-04-25T10:21:05;61.50;50.67;92.31;;
37279;Laerm;7458;49.002;8.472;2023-04-25T10:23:32;60.91;49.97;78.81;;
37279;Laerm;7458;49.002;8.472;2023-04-25T10:26:02;55.98;45.91;78.22;;
37279;Laerm;7458;49.002;8.472;2023-04-25T10:28:28;61.27;45.72;76.48;;
37279;Laerm;7458;49.002;8.472;2023-04-25T10:31:02;53.81;43.19;72.44;;
37279;Laerm;7458;49.002;8.472;2023-04-25T10:33:43;58.34;42.76;86.96;;
37279;Laerm;7458;49.002;8.472;2023-04-25T10:36:23;55.48;41.30;71.95;;
37279;Laerm;7458;49.002;8.472;2023-04-25T10:38:51;55.90;42.29;71.27;;
37279;Laerm;7458;49.002;8.472;2023-04-25T10:41:21;51.12;42.71;72.26;;
37279;Laerm;7458;49.002;8.472;2023-04-25T10:43:49;61.96;41.22;87.24;;
37279;Laerm;7458;49.002;8.472;2023-04-25T10:46:17;56.64;41.06;72.58;;
37279;Laerm;7458;49.002;8.472;2023-04-25T10:48:51;56.94;40.71;72.29;;
37279;Laerm;7458;49.002;8.472;2023-04-25T10:51:21;53.42;41.61;67.80;;
37279;Laerm;7458;49.002;8.472;2023-04-25T10:54:02;53.46;43.89;66.57;;
37279;Laerm;7458;49.002;8.472;2023-04-25T10:56:29;61.41;41.61;91.64;;
37279;Laerm;7458;49.002;8.472;2023-04-25T10:59:17;58.06;42.93;88.22;;
37279;Laerm;7458;49.002;8.472;2023-04-25T11:01:48;58.89;40.71;86.18;;
37279;Laerm;7458;49.002;8.472;2023-04-25T11:04:31;56.62;40.03;82.53;;
37279;Laerm;7458;49.002;8.472;2023-04-25T11:07:15;53.44;39.70;86.62;;
37279;Laerm;7458;49.002;8.472;2023-04-25T11:09:46;54.57;40.33;69.31;;
37279;Laerm;7458;49.002;8.472;2023-04-25T11:12:12;55.81;41.14;82.41;;
37279;Laerm;7458;49.002;8.472;2023-04-25T11:14:39;55.79;41.68;71.93;;
37279;Laerm;7458;49.002;8.472;2023-04-25T11:17:05;53.45;41.41;70.37;;
37279;Laerm;7458;49.002;8.472;2023-04-25T11:19:32;54.53;41.96;77.37;;
37279;Laerm;7458;49.002;8.472;2023-04-25T11:22:00;54.17;41.53;73.11;;
37279;Laerm;7458;49.002;8.472;2023-04-25T11:24:32;52.75;42.88;69.31;;
37279;Laerm;7458;49.002;8.472;2023-04-25T11:26:59;55.20;42.98;74.27;;
37279;Laerm;7458;49.002;8.472;2023-04-25T11:29:30;60.53;44.42;78.37;;
37279;Laerm;7458;49.002;8.472;2023-04-25T11:31:58;59.03;44.43;75.49;;
37279;Laerm;7458;49.002;8.472;2023-04-25T11:34:24;56.21;41.38;75.34;;
37279;Laerm;7458;49.002;8.472;2023-04-25T11:36:51;55.48;44.69;75.14;;
37279;Laerm;7458;49.002;8.472;2023-04-25T11:39:19;68.82;47.81;91.80;;
37279;Laerm;7458;49.002;8.472;2023-04-25T11:41:46;81.17;47.32;99.30;;
37279;Laerm;7458;49.002;8.472;2023-04-25T11:44:15;84.16;46.07;98.27;;
37279;Laerm;7458;49.002;8.472;2023-04-25T11:46:42;81.95;44.97;97.28;;
37279;Laerm;7458;49.002;8.472;2023-04-25T11:49:09;80.74;45.57;96.16;;
37279;Laerm;7458;49.002;8.472;2023-04-25T11:51:45;78.79;45.69;98.27;;
37279;Laerm;7458;49.002;8.472;2023-04-25T11:54:12;59.41;44.94;88.16;;
37279;Laerm;7458;49.002;8.472;2023-04-25T11:56:45;59.63;44.15;76.63;;
37279;Laerm;7458;49.002;8.472;2023-04-25T11:59:12;78.14;43.29;98.79;;
37279;Laerm;7458;49.002;8.472;2023-04-25T12:01:48;83.11;44.07;98.55;;
37279;Laerm;7458;49.002;8.472;2023-04-25T12:04:24;88.95;44.07;99.38;;
37279;Laerm;7458;49.002;8.472;2023-04-25T12:06:53;90.95;47.61;99.10;;
37279;Laerm;7458;49.002;8.472;2023-04-25T12:09:27;91.16;47.24;99.77;;
37279;Laerm;7458;49.002;8.472;2023-04-25T12:11:59;90.93;48.57;99.08;;
37279;Laerm;7458;49.002;8.472;2023-04-25T12:14:30;91.18;47.90;99.22;;
37279;Laerm;7458;49.002;8.472;2023-04-25T12:17:03;90.12;49.77;98.63;;
37279;Laerm;7458;49.002;8.472;2023-04-25T12:19:34;91.49;47.04;98.79;;
37279;Laerm;7458;49.002;8.472;2023-04-25T12:22:02;91.22;46.80;98.87;;
37279;Laerm;7458;49.002;8.472;2023-04-25T12:24:29;91.06;48.77;99.01;;
37279;Laerm;7458;49.002;8.472;2023-04-25T12:27:04;91.08;46.91;99.14;;
37279;Laerm;7458;49.002;8.472;2023-04-25T12:29:32;91.09;45.77;99.11;;
37279;Laerm;7458;49.002;8.472;2023-04-25T12:31:59;90.35;45.27;99.08;;
37279;Laerm;7458;49.002;8.472;2023-04-25T12:34:27;89.87;46.80;97.92;;
37279;Laerm;7458;49.002;8.472;2023-04-25T12:36:54;89.28;43.72;98.85;;
37279;Laerm;7458;49.002;8.472;2023-04-25T12:39:23;91.44;46.18;100.41;;
37279;Laerm;7458;49.002;8.472;2023-04-25T12:41:50;88.26;43.90;96.92;;
37279;Laerm;7458;49.002;8.472;2023-04-25T12:44:17;88.61;43.81;97.56;;
37279;Laerm;7458;49.002;8.472;2023-04-25T12:46:43;88.49;45.57;97.67;;
37279;Laerm;7458;49.002;8.472;2023-04-25T12:49:09;87.61;44.43;96.39;;
37279;Laerm;7458;49.002;8.472;2023-04-25T12:51:36;87.69;43.29;98.00;;
37279;Laerm;7458;49.002;8.472;2023-04-25T12:54:04;87.59;43.99;96.03;;
37279;Laerm;7458;49.002;8.472;2023-04-25T12:56:31;87.33;42.71;96.70;;
37279;Laerm;7458;49.002;8.472;2023-04-25T12:58:57;87.31;44.39;96.68;;
37279;Laerm;7458;49.002;8.472;2023-04-25T13:01:23;87.45;44.35;97.03;;
37279;Laerm;7458;49.002;8.472;2023-04-25T13:03:50;87.56;41.89;97.73;;
37279;Laerm;7458;49.002;8.472;2023-04-25T13:06:17;87.42;42.16;97.06;;
37279;Laerm;7458;49.002;8.472;2023-04-25T13:08:43;87.09;42.88;96.15;;
37279;Laerm;7458;49.002;8.472;2023-04-25T13:11:10;87.29;44.01;96.88;;
37279;Laerm;7458;49.002;8.472;2023-04-25T13:13:37;87.11;43.99;96.75;;
37279;Laerm;7458;49.002;8.472;2023-04-25T13:16:06;87.60;43.94;96.33;;
37279;Laerm;7458;49.002;8.472;2023-04-25T13:18:33;87.69;42.71;96.14;;
37279;Laerm;7458;49.002;8.472;2023-04-25T13:20:59;86.52;44.38;96.19;;
37279;Laerm;7458;49.002;8.472;2023-04-25T13:23:27;86.81;42.47;96.32;;
37279;Laerm;7458;49.002;8.472;2023-04-25T13:25:54;87.01;42.53;96.68;;
37279;Laerm;7458;49.002;8.472;2023-04-25T13:28:21;86.79;42.71;96.57;;
37279;Laerm;7458;49.002;8.472;2023-04-25T13:30:47;86.72;41.75;96.07;;
37279;Laerm;7458;49.002;8.472;2023-04-25T13:33:14;86.63;43.77;96.70;;
37279;Laerm;7458;49.002;8.472;2023-04-25T13:35:40;86.78;40.62;96.47;;
37279;Laerm;7458;49.002;8.472;2023-04-25T13:38:07;86.60;41.82;96.88;;
37279;Laerm;7458;49.002;8.472;2023-04-25T13:40:33;86.97;41.75;95.64;;
37279;Laerm;7458;49.002;8.472;2023-04-25T13:43:00;86.64;42.29;96.06;;
37279;Laerm;7458;49.002;8.472;2023-04-25T13:45:27;86.44;41.46;95.90;;
37279;Laerm;7458;49.002;8.472;2023-04-25T13:47:52;86.72;41.14;96.41;;
37279;Laerm;7458;49.002;8.472;2023-04-25T13:50:18;86.52;42.82;95.85;;
37279;Laerm;7458;49.002;8.472;2023-04-25T13:52:47;86.69;41.75;96.10;;
37279;Laerm;7458;49.002;8.472;2023-04-25T13:55:13;86.58;42.76;95.79;;
37279;Laerm;7458;49.002;8.472;2023-04-25T13:57:39;86.62;42.76;96.30;;